createdAt,value
2022-11-10T00:00:44.751Z,7.87
2022-11-10T00:03:18.456Z,7.58
2022-11-10T00:05:49.404Z,8.89
2022-11-10T00:08:20.070Z,10.16
2022-11-10T00:11:11.416Z,10.86
2022-11-10T00:13:58.924Z,11.30
2022-11-10T00:16:45.834Z,10.24
2022-11-10T00:19:15.164Z,8.94
2022-11-10T00:21:44.317Z,8.07
2022-11-10T00:24:12.109Z,7.86
2022-11-10T00:26:42.452Z,9.12
2022-11-10T00:29:10.680Z,10.30
2022-11-10T00:31:41.545Z,11.17
2022-11-10T00:34:16.894Z,11.41
2022-11-10T00:36:46.264Z,10.27
2022-11-10T00:39:22.983Z,9.12
2022-11-10T00:41:50.952Z,8.14
2022-11-10T00:44:22.765Z,7.41
2022-11-10T00:46:51.473Z,7.25
2022-11-10T00:49:21.300Z,8.52
2022-11-10T00:52:03.400Z,9.85
2022-11-10T00:54:31.823Z,10.77
2022-11-10T00:57:00.807Z,10.96
2022-11-10T00:59:32.828Z,9.85
2022-11-10T01:02:00.609Z,8.72
2022-11-10T01:04:29.527Z,7.85
2022-11-10T01:06:57.590Z,7.55
2022-11-10T01:09:25.855Z,8.63
2022-11-10T01:11:58.604Z,9.65
2022-11-10T01:14:26.502Z,10.14
2022-11-10T01:16:55.822Z,10.62
2022-11-10T01:19:24.369Z,10.54
2022-11-10T01:21:53.058Z,9.36
2022-11-10T01:24:24.219Z,8.21
2022-11-10T01:26:55.833Z,7.29
2022-11-10T01:29:24.324Z,6.60
2022-11-10T01:31:52.145Z,6.47
2022-11-10T01:34:20.499Z,7.72
2022-11-10T01:36:54.972Z,8.96
2022-11-10T01:39:28.280Z,9.51
2022-11-10T01:41:56.090Z,9.96
2022-11-10T01:44:26.547Z,10.44
2022-11-10T01:46:55.389Z,11.01
2022-11-10T01:49:27.555Z,11.12
2022-11-10T01:52:08.443Z,9.99
2022-11-10T01:54:46.501Z,8.76
2022-11-10T01:57:20.434Z,7.85
2022-11-10T01:59:52.109Z,7.43
2022-11-10T02:02:30.823Z,8.43
2022-11-10T02:05:03.905Z,9.72
2022-11-10T02:07:36.969Z,10.55
2022-11-10T02:10:16.473Z,11.19
2022-11-10T02:12:47.692Z,10.63
2022-11-10T02:15:19.807Z,9.25
2022-11-10T02:17:54.629Z,8.16
2022-11-10T02:20:23.508Z,7.39
2022-11-10T02:22:53.179Z,7.21
2022-11-10T02:25:27.649Z,8.56
2022-11-10T02:27:57.142Z,9.85
2022-11-10T02:30:27.815Z,10.70
2022-11-10T02:32:56.711Z,10.98
2022-11-10T02:35:25.344Z,9.92
2022-11-10T02:37:53.910Z,8.62
2022-11-10T02:40:22.049Z,7.62
2022-11-10T02:42:51.091Z,7.27
2022-11-10T02:45:24.308Z,8.51
2022-11-10T02:47:52.148Z,9.70
2022-11-10T02:50:20.487Z,10.34
2022-11-10T02:52:53.980Z,10.38
2022-11-10T02:55:25.852Z,9.26
2022-11-10T02:57:54.055Z,8.02
2022-11-10T03:00:23.535Z,7.09
2022-11-10T03:03:05.191Z,6.73
2022-11-10T03:05:35.358Z,8.07
2022-11-10T03:08:06.083Z,9.49
2022-11-10T03:10:35.536Z,10.28
2022-11-10T03:13:07.670Z,10.06
2022-11-10T03:15:37.884Z,8.69
2022-11-10T03:18:09.783Z,7.56
2022-11-10T03:20:38.090Z,6.74
2022-11-10T03:23:08.339Z,6.55
2022-11-10T03:25:39.507Z,7.94
2022-11-10T03:28:09.458Z,9.36
2022-11-10T03:30:40.118Z,10.13
2022-11-10T03:33:10.832Z,10.62
2022-11-10T03:35:40.463Z,10.50
2022-11-10T03:38:09.256Z,9.32
2022-11-10T03:40:56.874Z,8.20
2022-11-10T03:43:25.977Z,7.26
2022-11-10T03:45:53.922Z,6.64
2022-11-10T03:48:24.677Z,7.10
2022-11-10T03:50:54.588Z,8.68
2022-11-10T03:53:22.743Z,9.77
2022-11-10T03:55:51.303Z,10.32
2022-11-10T03:58:20.601Z,10.78
2022-11-10T04:00:48.608Z,10.58
2022-11-10T04:03:18.175Z,9.34
2022-11-10T04:06:05.673Z,8.18
2022-11-10T04:08:53.997Z,7.27
2022-11-10T04:11:46.176Z,7.15
2022-11-10T04:14:37.697Z,8.75
2022-11-10T04:17:07.557Z,9.93
2022-11-10T04:19:38.908Z,10.38
2022-11-10T04:22:07.184Z,10.43
2022-11-10T04:24:39.141Z,9.37
2022-11-10T04:27:08.496Z,8.19
2022-11-10T04:29:40.060Z,7.27
2022-11-10T04:32:07.895Z,6.56
2022-11-10T04:34:35.735Z,6.37
2022-11-10T04:37:04.039Z,7.66
2022-11-10T04:39:32.218Z,8.98
2022-11-10T04:42:02.695Z,9.93
2022-11-10T04:44:31.918Z,10.63
2022-11-10T04:47:00.019Z,10.73
2022-11-10T04:49:29.055Z,9.57
2022-11-10T04:51:57.017Z,8.37
2022-11-10T04:54:27.887Z,7.43
2022-11-10T04:56:56.055Z,7.12
2022-11-10T04:59:24.542Z,8.43
2022-11-10T05:01:55.771Z,9.70
2022-11-10T05:04:26.061Z,10.48
2022-11-10T05:06:55.412Z,10.79
2022-11-10T05:09:25.423Z,9.92
2022-11-10T05:11:53.859Z,8.61
2022-11-10T05:14:22.719Z,7.63
2022-11-10T05:16:50.641Z,7.35
2022-11-10T05:19:21.557Z,8.64
2022-11-10T05:21:49.896Z,10.02
2022-11-10T05:24:19.373Z,10.87
2022-11-10T05:26:47.091Z,10.83
2022-11-10T05:29:15.343Z,9.61
2022-11-10T05:31:49.088Z,8.25
2022-11-10T05:34:22.710Z,7.21
2022-11-10T05:36:51.520Z,6.48
2022-11-10T05:39:19.619Z,6.65
2022-11-10T05:41:47.375Z,8.27
2022-11-10T05:44:16.071Z,9.64
2022-11-10T05:46:48.889Z,10.53
2022-11-10T05:49:18.385Z,10.82
2022-11-10T05:51:46.818Z,9.71
2022-11-10T05:54:16.442Z,8.51
2022-11-10T05:56:44.284Z,7.60
2022-11-10T05:59:12.869Z,7.28
2022-11-10T06:01:41.311Z,8.59
2022-11-10T06:04:09.719Z,10.00
2022-11-10T06:06:38.863Z,10.87
2022-11-10T06:09:08.248Z,10.83
2022-11-10T06:11:36.904Z,9.52
2022-11-10T06:14:06.059Z,8.33
2022-11-10T06:16:38.144Z,7.40
2022-11-10T06:19:09.286Z,6.71
2022-11-10T06:24:23.048Z,8.11
2022-11-10T06:26:52.123Z,9.45
2022-11-10T06:29:26.563Z,10.15
2022-11-10T06:31:55.920Z,10.77
2022-11-10T06:34:24.900Z,10.80
2022-11-10T06:36:52.817Z,9.50
2022-11-10T06:39:22.085Z,8.30
2022-11-10T06:41:51.909Z,8.04
2022-11-10T06:44:20.188Z,9.31
2022-11-10T06:46:48.236Z,10.34
2022-11-10T06:49:16.263Z,11.00
2022-11-10T06:51:45.090Z,10.96
2022-11-10T06:54:16.088Z,9.78
2022-11-10T06:56:45.201Z,8.64
2022-11-10T06:59:15.140Z,7.80
2022-11-10T07:01:48.807Z,7.52
2022-11-10T07:04:20.376Z,8.87
2022-11-10T07:06:53.003Z,10.34
2022-11-10T07:09:22.583Z,11.21
2022-11-10T07:11:52.109Z,11.17
2022-11-10T07:14:21.819Z,9.96
2022-11-10T07:16:52.174Z,8.85
2022-11-10T07:19:20.917Z,8.02
2022-11-10T07:21:50.175Z,7.76
2022-11-10T07:24:21.730Z,8.86
2022-11-10T07:26:52.229Z,10.12
2022-11-10T07:29:21.046Z,10.90
2022-11-10T07:31:49.290Z,11.12
2022-11-10T07:34:17.388Z,9.98
2022-11-10T07:36:45.543Z,8.66
2022-11-10T07:39:16.970Z,7.65
2022-11-10T07:41:48.738Z,7.30
2022-11-10T07:44:19.395Z,8.68
2022-11-10T07:46:47.800Z,10.03
2022-11-10T07:49:16.197Z,10.87
2022-11-10T07:51:52.332Z,11.31
2022-11-10T07:54:22.398Z,11.08
2022-11-10T07:56:57.084Z,9.86
2022-11-10T07:59:25.090Z,8.79
2022-11-10T08:01:55.738Z,7.99
2022-11-10T08:04:23.861Z,7.80
2022-11-10T08:06:52.096Z,9.13
2022-11-10T08:09:20.624Z,10.43
2022-11-10T08:11:49.271Z,11.24
2022-11-10T08:14:17.500Z,11.42
2022-11-10T08:16:46.402Z,10.26
2022-11-10T08:19:14.728Z,9.01
2022-11-10T08:21:43.877Z,8.04
2022-11-10T08:24:12.469Z,7.66
2022-11-10T08:26:40.978Z,8.84
2022-11-10T08:29:20.329Z,10.04
2022-11-10T08:31:52.332Z,10.84
2022-11-10T08:34:23.275Z,11.39
2022-11-10T08:36:54.307Z,11.52
2022-11-10T08:39:37.997Z,10.38
2022-11-10T08:42:09.904Z,9.03
2022-11-10T08:44:40.493Z,8.11
2022-11-10T08:47:10.727Z,7.90
2022-11-10T08:49:40.560Z,9.16
2022-11-10T08:52:10.761Z,10.49
2022-11-10T08:54:40.134Z,11.30
2022-11-10T08:57:09.698Z,11.69
2022-11-10T08:59:38.210Z,11.73
2022-11-10T09:02:10.640Z,10.47
2022-11-10T09:04:40.148Z,9.25
2022-11-10T09:07:09.098Z,8.31
2022-11-10T09:09:36.891Z,7.60
2022-11-10T09:12:07.807Z,7.54
2022-11-10T09:14:43.100Z,9.04
2022-11-10T09:17:12.916Z,10.26
2022-11-10T09:19:41.663Z,11.13
2022-11-10T09:22:10.844Z,11.80
2022-11-10T09:24:41.911Z,11.97
2022-11-10T09:27:10.042Z,10.75
2022-11-10T09:29:39.021Z,9.45
2022-11-10T09:32:07.589Z,8.46
2022-11-10T09:34:36.768Z,8.06
2022-11-10T09:37:05.115Z,9.25
2022-11-10T09:39:40.172Z,10.52
2022-11-10T09:42:30.484Z,11.34
2022-11-10T09:45:18.006Z,12.03
2022-11-10T09:48:02.017Z,12.10
2022-11-10T09:50:49.621Z,10.87
2022-11-10T09:53:31.225Z,9.64
2022-11-10T09:56:05.985Z,8.72
2022-11-10T09:58:44.899Z,8.52
2022-11-10T10:01:26.779Z,9.88
2022-11-10T10:04:13.006Z,11.18
2022-11-10T10:07:11.755Z,12.04
2022-11-10T10:09:42.183Z,12.09
2022-11-10T10:12:25.892Z,10.89
2022-11-10T10:15:26.045Z,9.70
2022-11-10T10:18:23.955Z,8.76
2022-11-10T10:21:22.970Z,8.78
2022-11-10T10:24:09.429Z,10.40
2022-11-10T10:26:58.009Z,11.61
2022-11-10T10:29:43.517Z,12.26
2022-11-10T10:32:15.083Z,12.35
2022-11-10T10:34:45.767Z,11.12
2022-11-10T10:37:41.556Z,9.89
2022-11-10T10:40:21.790Z,9.45
2022-11-10T10:42:52.027Z,10.70
2022-11-10T10:45:31.286Z,11.88
2022-11-10T10:48:01.873Z,12.70
2022-11-10T10:50:37.101Z,12.82
2022-11-10T10:53:19.555Z,11.67
2022-11-10T10:56:06.161Z,10.40
2022-11-10T10:58:54.365Z,9.36
2022-11-10T11:01:33.037Z,9.19
2022-11-10T11:04:28.085Z,10.51
2022-11-10T11:07:23.879Z,11.83
2022-11-10T11:09:52.801Z,12.61
2022-11-10T11:12:21.836Z,13.07
2022-11-10T11:14:49.784Z,13.03
2022-11-10T11:17:25.198Z,11.91
2022-11-10T11:20:00.001Z,10.73
2022-11-10T11:22:57.450Z,10.20
2022-11-10T11:25:37.834Z,11.41
2022-11-10T11:28:30.262Z,12.42
2022-11-10T11:31:31.114Z,13.07
2022-11-10T11:34:37.917Z,12.88
2022-11-10T11:37:43.072Z,11.32
2022-11-10T11:40:30.126Z,10.12
2022-11-10T11:43:55.104Z,9.87
2022-11-10T11:47:09.979Z,11.55
2022-11-10T11:50:07.797Z,12.70
2022-11-10T11:52:54.652Z,13.37
2022-11-10T11:55:59.125Z,13.42
2022-11-10T11:58:59.576Z,12.03
2022-11-10T12:01:33.728Z,10.82
2022-11-10T12:04:37.240Z,10.57
2022-11-10T12:07:36.035Z,12.20
2022-11-10T12:10:42.862Z,13.56
2022-11-10T12:14:08.587Z,14.25
2022-11-10T12:16:39.515Z,13.05
2022-11-10T12:19:35.928Z,11.92
2022-11-10T12:22:44.395Z,10.97
2022-11-10T12:25:49.727Z,11.42
2022-11-10T12:28:52.824Z,13.09
2022-11-10T12:31:24.746Z,14.24
2022-11-10T12:34:48.866Z,14.42
2022-11-10T12:37:31.404Z,12.78
2022-11-10T12:40:15.583Z,11.56
2022-11-10T12:42:58.477Z,10.64
2022-11-10T12:45:33.812Z,10.65
2022-11-10T12:48:05.321Z,12.17
2022-11-10T12:50:53.179Z,13.42
2022-11-10T12:53:47.054Z,14.24
2022-11-10T12:56:30.565Z,14.17
2022-11-10T12:59:38.037Z,12.80
2022-11-10T13:03:01.066Z,11.46
2022-11-10T13:05:42.716Z,11.27
2022-11-10T13:08:35.912Z,12.86
2022-11-10T13:11:18.862Z,13.97
2022-11-10T13:14:05.260Z,14.44
2022-11-10T13:16:42.945Z,13.91
2022-11-10T13:19:33.737Z,12.48
2022-11-10T13:22:01.635Z,11.19
2022-11-10T13:24:34.663Z,10.81
2022-11-10T13:27:46.756Z,12.12
2022-11-10T13:30:49.558Z,13.73
2022-11-10T13:33:39.216Z,14.63
2022-11-10T13:36:13.178Z,14.57
2022-11-10T13:38:45.762Z,13.33
2022-11-10T13:41:25.144Z,12.16
2022-11-10T13:43:57.937Z,12.11
2022-11-10T13:46:45.783Z,13.60
2022-11-10T13:49:38.392Z,14.46
2022-11-10T13:52:23.052Z,14.49
2022-11-10T13:55:14.742Z,13.09
2022-11-10T13:58:07.680Z,11.72
2022-11-10T14:00:39.563Z,11.52
2022-11-10T14:03:46.639Z,12.80
2022-11-10T14:06:29.464Z,14.01
2022-11-10T14:09:06.937Z,14.67
2022-11-10T14:11:50.127Z,14.78
2022-11-10T14:14:36.841Z,13.35
2022-11-10T14:17:24.125Z,12.05
2022-11-10T14:19:53.308Z,11.94
2022-11-10T14:22:42.770Z,13.09
2022-11-10T14:25:43.006Z,14.19
2022-11-10T14:28:34.178Z,14.85
2022-11-10T14:31:02.426Z,14.70
2022-11-10T14:33:30.831Z,13.39
2022-11-10T14:36:09.005Z,12.18
2022-11-10T14:38:45.333Z,11.69
2022-11-10T14:41:21.879Z,12.83
2022-11-10T14:44:13.233Z,13.69
2022-11-10T14:46:43.255Z,14.37
2022-11-10T14:49:23.076Z,14.94
2022-11-10T14:52:00.190Z,15.40
2022-11-10T14:54:29.984Z,14.66
2022-11-10T14:56:57.824Z,13.44
2022-11-10T14:59:29.040Z,12.50
2022-11-10T15:02:04.635Z,12.25
2022-11-10T15:04:37.214Z,13.43
2022-11-10T15:07:06.802Z,14.40
2022-11-10T15:09:36.014Z,15.09
2022-11-10T15:12:04.264Z,15.29
2022-11-10T15:15:16.731Z,14.15
2022-11-10T15:17:53.719Z,12.59
2022-11-10T15:20:41.872Z,12.10
2022-11-10T15:23:37.628Z,13.30
2022-11-10T15:26:16.302Z,14.26
2022-11-10T15:28:47.841Z,14.96
2022-11-10T15:31:33.214Z,15.43
2022-11-10T15:34:05.746Z,15.17
2022-11-10T15:36:41.469Z,13.89
2022-11-10T15:39:13.130Z,12.83
2022-11-10T15:41:50.286Z,12.42
2022-11-10T15:44:29.020Z,13.67
2022-11-10T15:46:59.647Z,14.80
2022-11-10T15:49:37.576Z,15.48
2022-11-10T15:52:27.231Z,15.50
2022-11-10T15:54:55.921Z,14.04
2022-11-10T15:57:24.415Z,12.84
2022-11-10T15:59:53.788Z,12.37
2022-11-10T16:02:28.748Z,13.43
2022-11-10T16:05:00.036Z,14.58
2022-11-10T16:07:28.963Z,15.20
2022-11-10T16:10:01.047Z,15.46
2022-11-10T16:12:30.185Z,14.36
2022-11-10T16:14:59.758Z,13.15
2022-11-10T16:17:31.625Z,12.64
2022-11-10T16:20:01.233Z,13.67
2022-11-10T16:22:29.606Z,14.86
2022-11-10T16:24:57.713Z,15.56
2022-11-10T16:27:34.439Z,15.46
2022-11-10T16:30:03.032Z,14.32
2022-11-10T16:32:35.445Z,13.63
2022-11-10T16:35:06.860Z,14.44
2022-11-10T16:37:37.499Z,15.43
2022-11-10T16:40:21.249Z,16.12
2022-11-10T16:42:51.360Z,16.58
2022-11-10T16:45:30.845Z,16.93
2022-11-10T16:47:59.380Z,16.82
2022-11-10T16:50:34.823Z,15.40
2022-11-10T16:53:13.439Z,14.54
2022-11-10T16:55:47.201Z,15.40
2022-11-10T16:58:15.207Z,16.18
2022-11-10T17:00:47.877Z,16.66
2022-11-10T17:03:29.440Z,17.13
2022-11-10T17:06:02.036Z,16.91
2022-11-10T17:08:37.717Z,15.74
2022-11-10T17:11:07.840Z,14.54
2022-11-10T17:13:40.648Z,14.85
2022-11-10T17:16:25.495Z,15.95
2022-11-10T17:18:55.935Z,16.52
2022-11-10T17:21:32.536Z,16.92
2022-11-10T17:24:05.667Z,17.29
2022-11-10T17:26:34.541Z,17.57
2022-11-10T17:29:04.406Z,17.61
2022-11-10T17:31:32.648Z,16.50
2022-11-10T17:34:03.800Z,15.33
2022-11-10T17:36:34.585Z,14.89
2022-11-10T17:39:02.485Z,15.94
2022-11-10T17:41:31.932Z,16.74
2022-11-10T17:44:01.287Z,17.41
2022-11-10T17:46:29.102Z,17.55
2022-11-10T17:49:02.576Z,17.08
2022-11-10T17:51:33.790Z,17.24
2022-11-10T17:54:07.652Z,17.40
2022-11-10T17:56:46.840Z,17.60
2022-11-10T17:59:14.908Z,17.08
2022-11-10T18:01:43.118Z,17.39
2022-11-10T18:04:15.324Z,16.95
2022-11-10T18:06:45.479Z,16.92
2022-11-10T18:09:14.538Z,17.13
2022-11-10T18:11:42.788Z,16.99
2022-11-10T18:14:15.879Z,16.43
2022-11-10T18:16:53.054Z,16.74
2022-11-10T18:19:29.375Z,17.29
2022-11-10T18:22:01.513Z,17.34
2022-11-10T18:24:34.984Z,17.77
2022-11-10T18:27:02.915Z,18.14
2022-11-10T18:29:35.030Z,17.33
2022-11-10T18:32:05.028Z,16.35
2022-11-10T18:34:35.593Z,16.32
2022-11-10T18:37:20.070Z,16.66
2022-11-10T18:39:48.361Z,17.08
2022-11-10T18:42:21.852Z,17.72
2022-11-10T18:44:58.082Z,18.05
2022-11-10T18:47:27.694Z,17.63
2022-11-10T18:50:11.257Z,17.41
2022-11-10T18:52:41.167Z,17.12
2022-11-10T18:55:13.433Z,17.07
2022-11-10T18:57:44.660Z,17.47
2022-11-10T19:00:13.934Z,17.85
2022-11-10T19:02:50.208Z,18.21
2022-11-10T19:05:23.444Z,17.06
2022-11-10T19:07:53.489Z,16.20
2022-11-10T19:10:26.623Z,16.86
2022-11-10T19:13:00.213Z,17.73
2022-11-10T19:15:29.613Z,18.25
2022-11-10T19:18:00.976Z,17.99
2022-11-10T19:20:31.228Z,17.04
2022-11-10T19:23:03.643Z,16.05
2022-11-10T19:25:32.793Z,15.59
2022-11-10T19:28:05.101Z,16.50
2022-11-10T19:30:35.300Z,17.34
2022-11-10T19:33:03.108Z,18.08
2022-11-10T19:35:34.015Z,17.51
2022-11-10T19:38:02.418Z,16.37
2022-11-10T19:40:32.806Z,15.48
2022-11-10T19:43:01.156Z,15.17
2022-11-10T19:45:30.274Z,16.27
2022-11-10T19:47:59.680Z,17.28
2022-11-10T19:50:34.969Z,17.87
2022-11-10T19:53:04.544Z,17.90
2022-11-10T19:55:34.324Z,16.81
2022-11-10T19:58:02.586Z,15.70
2022-11-10T20:00:30.945Z,15.25
2022-11-10T20:02:58.891Z,16.07
2022-11-10T20:05:27.253Z,16.75
2022-11-10T20:08:16.085Z,17.68
2022-11-10T20:10:50.068Z,17.89
2022-11-10T20:13:19.747Z,16.88
2022-11-10T20:15:50.011Z,15.88
2022-11-10T20:18:17.920Z,15.52
2022-11-10T20:20:46.556Z,16.64
2022-11-10T20:23:16.393Z,17.66
2022-11-10T20:25:44.799Z,17.62
2022-11-10T20:28:15.137Z,16.64
2022-11-10T20:30:46.860Z,15.83
2022-11-10T20:33:19.674Z,16.27
2022-11-10T20:35:48.190Z,17.57
2022-11-10T20:38:20.004Z,17.81
2022-11-10T20:40:50.022Z,16.99
2022-11-10T20:43:18.576Z,16.28
2022-11-10T20:45:47.101Z,16.86
2022-11-10T20:48:18.352Z,18.02
2022-11-10T20:50:46.500Z,17.86
2022-11-10T20:53:14.823Z,16.85
2022-11-10T20:55:53.481Z,16.51
2022-11-10T20:58:21.954Z,17.50
2022-11-10T21:00:50.455Z,18.05
2022-11-10T21:03:19.301Z,17.40
2022-11-10T21:05:55.485Z,16.39
2022-11-10T21:08:27.125Z,16.56
2022-11-10T21:11:02.900Z,17.25
2022-11-10T21:13:32.260Z,17.71
2022-11-10T21:16:05.427Z,17.98
2022-11-10T21:18:37.647Z,17.18
2022-11-10T21:21:45.208Z,16.39
2022-11-10T21:24:14.611Z,17.23
2022-11-10T21:26:42.626Z,17.81
2022-11-10T21:29:11.787Z,17.72
2022-11-10T21:31:39.643Z,17.86
2022-11-10T21:34:07.868Z,17.47
2022-11-10T21:36:36.469Z,16.59
2022-11-10T21:39:08.292Z,17.07
2022-11-10T21:41:51.157Z,17.62
2022-11-10T21:44:22.284Z,17.95
2022-11-10T21:46:51.420Z,17.74
2022-11-10T21:49:22.635Z,16.72
2022-11-10T21:51:53.988Z,16.58
2022-11-10T21:54:26.538Z,16.95
2022-11-10T21:56:55.394Z,17.62
2022-11-10T21:59:24.643Z,18.09
2022-11-10T22:01:55.982Z,17.38
2022-11-10T22:04:25.045Z,16.56
2022-11-10T22:07:14.278Z,16.91
2022-11-10T22:10:03.176Z,17.43
2022-11-10T22:12:51.108Z,17.97
2022-11-10T22:15:39.670Z,17.53
2022-11-10T22:18:37.164Z,16.71
2022-11-10T22:21:08.161Z,17.37
2022-11-10T22:24:05.101Z,17.70
2022-11-10T22:26:39.233Z,18.01
2022-11-10T22:29:08.458Z,17.89
2022-11-10T22:31:39.183Z,17.00
2022-11-10T22:34:09.478Z,16.58
2022-11-10T22:36:40.144Z,17.37
2022-11-10T22:39:11.809Z,18.39
2022-11-10T22:41:58.897Z,18.51
2022-11-10T22:44:28.596Z,17.23
2022-11-10T22:46:56.613Z,16.43
2022-11-10T22:49:28.173Z,16.55
2022-11-10T22:51:58.552Z,17.69
2022-11-10T22:54:27.217Z,18.40
2022-11-10T22:56:56.231Z,18.57
2022-11-10T22:59:25.462Z,17.58
2022-11-10T23:01:53.687Z,16.89
2022-11-10T23:04:21.819Z,17.55
2022-11-10T23:06:50.154Z,18.42
2022-11-10T23:09:21.620Z,18.23
2022-11-10T23:11:49.479Z,17.24
2022-11-10T23:14:18.298Z,16.78
2022-11-10T23:16:46.662Z,17.47
2022-11-10T23:19:15.839Z,18.05
2022-11-10T23:21:45.217Z,18.04
2022-11-10T23:24:14.189Z,17.18
2022-11-10T23:26:43.776Z,17.22
2022-11-10T23:29:14.234Z,18.40
2022-11-10T23:31:43.073Z,18.96
2022-11-10T23:34:10.992Z,18.16
2022-11-10T23:36:41.938Z,17.24
2022-11-10T23:39:10.095Z,16.97
2022-11-10T23:41:38.281Z,18.08
2022-11-10T23:44:08.934Z,18.47
2022-11-10T23:46:38.497Z,17.87
2022-11-10T23:49:08.755Z,17.05
2022-11-10T23:51:36.933Z,17.33
2022-11-10T23:54:13.609Z,18.50
2022-11-10T23:56:42.595Z,18.75
2022-11-10T23:59:10.984Z,17.88
